Time;durP1;ratioP1;P1;durP2;ratioP2;P2;SDS_P1;SDS_P2;PMS_P1;PMS_P2;Temp;Humidity;BMP_temperature;BMP_pressure;BME280_temperature;BME280_humidity;BME280_pressure;Samples;Min_cycle;Max_cycle;Signal;HPM_P1;HPM_P2
2023/11/26 00:01:05;;;;;;;9.13;3.03;;;2.10;99.90;;;;;;5037777;28;20233;-67
2023/11/26 00:03:32;;;;;;;10.05;2.40;;;2.10;99.90;;;;;;5042434;28;20236;-64
2023/11/26 00:06:01;;;;;;;8.15;2.97;;;2.10;99.90;;;;;;5041453;28;20826;-66
2023/11/26 00:08:29;;;;;;;9.07;2.88;;;2.00;99.90;;;;;;5041833;28;20313;-66
2023/11/26 00:10:56;;;;;;;8.98;3.25;;;2.00;99.90;;;;;;5033220;28;20278;-66
2023/11/26 00:13:27;;;;;;;8.95;3.13;;;2.00;99.90;;;;;;5041690;28;20204;-66
2023/11/26 00:15:54;;;;;;;8.98;3.05;;;2.00;99.90;;;;;;5040500;28;20315;-65
2023/11/26 00:18:28;;;;;;;10.25;3.25;;;1.90;99.90;;;;;;5041871;28;20197;-66
2023/11/26 00:20:56;;;;;;;10.38;3.45;;;1.90;99.90;;;;;;5041315;28;20706;-65
2023/11/26 00:23:24;;;;;;;10.90;3.33;;;2.00;99.90;;;;;;5042017;28;20893;-66
2023/11/26 00:25:51;;;;;;;11.07;3.70;;;2.00;99.90;;;;;;5040201;28;20229;-63
2023/11/26 00:28:20;;;;;;;11.50;3.95;;;2.00;99.90;;;;;;5041395;28;20294;-66
2023/11/26 00:30:48;;;;;;;9.38;3.10;;;2.00;99.90;;;;;;5041175;28;20253;-69
2023/11/26 00:33:18;;;;;;;9.70;3.67;;;2.00;99.90;;;;;;5041273;28;20301;-64
2023/11/26 00:35:48;;;;;;;10.23;3.30;;;1.90;99.90;;;;;;5034527;28;20590;-66
2023/11/26 00:38:16;;;;;;;11.85;4.07;;;1.80;99.90;;;;;;5032318;28;20216;-68
2023/11/26 00:40:45;;;;;;;11.75;3.60;;;1.70;99.90;;;;;;5039713;28;21098;-67
2023/11/26 00:43:13;;;;;;;10.40;4.15;;;1.70;99.90;;;;;;5043255;28;20226;-64
2023/11/26 00:45:43;;;;;;;11.88;4.30;;;1.70;99.90;;;;;;5042310;28;20204;-65
2023/11/26 00:48:11;;;;;;;12.30;4.28;;;1.60;99.90;;;;;;5042799;28;20226;-66
2023/11/26 00:50:39;;;;;;;12.02;5.20;;;1.70;99.90;;;;;;5042202;28;20220;-64
2023/11/26 00:53:09;;;;;;;13.60;5.10;;;1.60;99.90;;;;;;5040290;28;20204;-65
2023/11/26 00:55:36;;;;;;;21.88;5.18;;;1.60;99.90;;;;;;5041831;28;20213;-66
2023/11/26 00:58:04;;;;;;;13.10;5.45;;;1.50;99.90;;;;;;5034874;28;20292;-65
2023/11/26 01:00:32;;;;;;;13.88;6.10;;;1.60;99.90;;;;;;5043666;28;20244;-68
2023/11/26 01:03:00;;;;;;;16.20;5.97;;;1.60;99.90;;;;;;5048265;28;20207;-68
2023/11/26 01:05:29;;;;;;;10.68;4.90;;;1.60;99.90;;;;;;5042320;28;20229;-66
2023/11/26 01:07:57;;;;;;;13.90;5.72;;;1.50;99.90;;;;;;5042235;28;20815;-66
2023/11/26 01:10:26;;;;;;;14.30;5.78;;;1.40;99.90;;;;;;5042535;28;20227;-67
2023/11/26 01:12:55;;;;;;;11.55;4.32;;;1.30;99.90;;;;;;5041930;28;20249;-67
2023/11/26 01:15:23;;;;;;;11.00;4.53;;;1.20;99.90;;;;;;5040898;28;20208;-66
2023/11/26 01:17:51;;;;;;;12.02;4.93;;;1.20;99.90;;;;;;5040680;28;20291;-67
2023/11/26 01:20:19;;;;;;;14.15;5.55;;;1.30;99.90;;;;;;5039367;28;20233;-65
2023/11/26 01:22:47;;;;;;;12.55;4.60;;;1.50;99.90;;;;;;5030871;28;20295;-68
2023/11/26 01:25:15;;;;;;;11.55;5.55;;;1.60;99.90;;;;;;5026833;28;20298;-67
2023/11/26 01:27:44;;;;;;;15.20;5.32;;;1.70;99.90;;;;;;5042101;28;20299;-65
2023/11/26 01:30:13;;;;;;;11.93;5.00;;;1.60;99.90;;;;;;5042332;28;20252;-65
2023/11/26 01:32:42;;;;;;;12.23;4.95;;;1.50;99.90;;;;;;5044905;28;20912;-67
2023/11/26 01:35:10;;;;;;;11.77;4.75;;;1.60;99.90;;;;;;5045200;28;20272;-66
2023/11/26 01:37:38;;;;;;;13.30;4.80;;;1.50;99.90;;;;;;5044997;28;20662;-68
2023/11/26 01:40:09;;;;;;;12.85;4.68;;;1.60;99.90;;;;;;5037209;28;20282;-66
2023/11/26 01:42:37;;;;;;;15.77;4.35;;;1.60;99.90;;;;;;5045979;28;20767;-67
2023/11/26 01:45:07;;;;;;;14.20;6.15;;;1.80;99.90;;;;;;5046243;28;20355;-66
2023/11/26 01:47:35;;;;;;;11.25;4.97;;;1.80;99.90;;;;;;5046403;28;20210;-66
2023/11/26 01:50:03;;;;;;;13.25;4.60;;;1.90;99.90;;;;;;5046276;28;20251;-67
2023/11/26 01:52:31;;;;;;;18.80;5.10;;;1.90;99.90;;;;;;5044915;28;20274;-67
2023/11/26 01:55:00;;;;;;;12.50;4.78;;;2.00;99.90;;;;;;5046346;28;20236;-67
2023/11/26 01:57:28;;;;;;;12.73;4.05;;;1.90;99.90;;;;;;5045683;28;20199;-66
2023/11/26 01:59:56;;;;;;;10.57;4.57;;;1.90;99.90;;;;;;5046865;28;20238;-68
2023/11/26 02:02:27;;;;;;;12.55;5.10;;;1.80;99.90;;;;;;5047633;28;20206;-66
2023/11/26 02:04:55;;;;;;;15.13;4.97;;;1.80;99.90;;;;;;5047737;28;20215;-66
2023/11/26 02:07:23;;;;;;;10.32;4.68;;;1.80;99.90;;;;;;5050178;28;20212;-68
2023/11/26 02:09:50;;;;;;;12.05;4.85;;;1.90;99.90;;;;;;5050747;28;20228;-67
2023/11/26 02:12:18;;;;;;;13.50;4.95;;;1.90;99.90;;;;;;5049817;28;20283;-68
2023/11/26 02:14:49;;;;;;;11.38;4.38;;;1.90;99.90;;;;;;5048963;28;20229;-66
2023/11/26 02:17:17;;;;;;;12.30;3.95;;;1.90;99.90;;;;;;5050310;28;20230;-68
2023/11/26 02:19:48;;;;;;;12.70;4.50;;;1.90;99.90;;;;;;5048649;28;20314;-67
2023/11/26 02:22:16;;;;;;;10.50;4.35;;;1.90;99.90;;;;;;5050316;28;20211;-68
2023/11/26 02:24:46;;;;;;;10.30;4.43;;;1.80;99.90;;;;;;5049403;28;20310;-68
2023/11/26 02:27:14;;;;;;;13.07;3.70;;;1.90;99.90;;;;;;5050085;28;20212;-68
2023/11/26 02:29:42;;;;;;;10.77;4.25;;;1.80;99.90;;;;;;5049938;28;20469;-66
2023/11/26 02:32:10;;;;;;;12.50;4.70;;;1.80;99.90;;;;;;5050332;28;20771;-67
2023/11/26 02:34:38;;;;;;;12.87;3.93;;;1.80;99.90;;;;;;5050124;28;20564;-67
2023/11/26 02:37:06;;;;;;;11.93;4.30;;;1.80;99.90;;;;;;5049620;28;20541;-68
2023/11/26 02:39:34;;;;;;;10.10;4.00;;;1.70;99.90;;;;;;5049452;28;20247;-67
2023/11/26 02:42:04;;;;;;;12.05;4.60;;;1.70;99.90;;;;;;5049420;28;20205;-67
2023/11/26 02:44:32;;;;;;;10.40;4.00;;;1.70;99.90;;;;;;5048633;28;20753;-69
2023/11/26 02:47:00;;;;;;;11.05;4.32;;;1.70;99.90;;;;;;5047566;28;20212;-65
2023/11/26 02:49:28;;;;;;;12.88;4.05;;;1.70;99.90;;;;;;5047400;28;21001;-67
2023/11/26 02:51:56;;;;;;;12.30;4.43;;;1.80;99.90;;;;;;5047171;28;20691;-67
2023/11/26 02:54:24;;;;;;;13.38;3.60;;;1.90;99.90;;;;;;5046935;28;20446;-67
2023/11/26 02:56:52;;;;;;;9.60;3.33;;;1.90;99.90;;;;;;5047482;28;20260;-66
2023/11/26 02:59:21;;;;;;;10.55;3.67;;;1.90;99.90;;;;;;5047165;28;20230;-68
2023/11/26 03:01:49;;;;;;;12.20;4.00;;;1.90;99.90;;;;;;5046986;28;20195;-68
2023/11/26 03:04:21;;;;;;;10.70;3.35;;;1.90;99.90;;;;;;5046149;28;20205;-67
2023/11/26 03:06:52;;;;;;;13.73;3.85;;;1.80;99.90;;;;;;5047572;28;20269;-69
2023/11/26 03:12:56;;;;;;;8.80;3.30;;;1.70;99.90;;;;;;5047213;28;20231;-69
2023/11/26 03:15:14;;;;;;;17.58;3.17;;;1.70;99.90;;;;;;5045539;28;20210;-67
2023/11/26 03:17:42;;;;;;;10.82;3.78;;;1.70;99.90;;;;;;5048970;28;20601;-67
2023/11/26 03:20:16;;;;;;;12.23;3.70;;;1.70;99.90;;;;;;5048333;28;20658;-68
2023/11/26 03:22:44;;;;;;;10.73;3.17;;;1.70;99.90;;;;;;5047111;28;20744;-69
2023/11/26 03:25:13;;;;;;;9.70;3.43;;;1.60;99.90;;;;;;5047363;28;20431;-68
2023/11/26 03:27:41;;;;;;;12.67;3.40;;;1.60;99.90;;;;;;5048330;28;20463;-67
2023/11/26 03:30:09;;;;;;;9.30;2.90;;;1.60;99.90;;;;;;5047547;28;21263;-67
2023/11/26 03:32:39;;;;;;;10.60;3.17;;;1.60;99.90;;;;;;5047466;28;20510;-69
2023/11/26 03:35:08;;;;;;;10.47;3.17;;;1.60;99.90;;;;;;5038286;28;20444;-68
2023/11/26 03:37:36;;;;;;;9.80;3.53;;;1.80;99.90;;;;;;5046776;28;20450;-66
2023/11/26 03:40:07;;;;;;;9.13;2.63;;;1.90;99.90;;;;;;5046625;28;20483;-67
2023/11/26 03:42:36;;;;;;;10.37;3.57;;;1.90;99.90;;;;;;5029025;28;20538;-68
2023/11/26 03:45:06;;;;;;;9.13;3.13;;;2.00;99.90;;;;;;5045961;28;21087;-68
2023/11/26 03:47:34;;;;;;;9.73;3.08;;;1.90;99.90;;;;;;5047018;28;21147;-69
2023/11/26 03:50:08;;;;;;;8.80;3.07;;;1.90;99.90;;;;;;5046460;28;20286;-69
2023/11/26 03:52:36;;;;;;;12.03;3.27;;;2.00;99.90;;;;;;5046660;28;20520;-68
2023/11/26 03:55:05;;;;;;;10.10;3.50;;;1.90;99.90;;;;;;5046017;28;20505;-69
2023/11/26 03:57:33;;;;;;;11.73;3.10;;;1.90;99.90;;;;;;5046710;28;20478;-68
2023/11/26 04:00:01;;;;;;;9.20;2.70;;;1.70;99.90;;;;;;5044756;28;20540;-68
2023/11/26 04:02:29;;;;;;;9.27;3.20;;;1.70;99.90;;;;;;5047828;28;20446;-67
2023/11/26 04:04:57;;;;;;;9.57;2.90;;;1.70;99.90;;;;;;5053244;28;20436;-67
2023/11/26 04:07:26;;;;;;;10.03;2.93;;;1.90;99.90;;;;;;5047717;28;20513;-68
2023/11/26 04:09:54;;;;;;;9.07;2.93;;;1.90;99.90;;;;;;5047321;28;20541;-69
2023/11/26 04:12:23;;;;;;;10.20;2.90;;;1.80;99.90;;;;;;5047960;28;20616;-67
2023/11/26 04:14:55;;;;;;;9.83;3.80;;;1.90;99.90;;;;;;5041509;28;20981;-66
2023/11/26 04:17:24;;;;;;;9.30;2.77;;;1.90;99.90;;;;;;5047921;28;20464;-69
2023/11/26 04:19:53;;;;;;;11.30;3.27;;;1.80;99.90;;;;;;5047523;28;20470;-67
2023/11/26 04:22:22;;;;;;;10.03;3.00;;;1.90;99.90;;;;;;5047527;28;20522;-70
2023/11/26 04:24:52;;;;;;;8.33;2.67;;;1.90;99.90;;;;;;5047049;28;20467;-67
2023/11/26 04:27:21;;;;;;;8.43;2.77;;;1.90;99.90;;;;;;5047599;28;20460;-68
2023/11/26 04:29:49;;;;;;;11.33;2.60;;;2.00;99.90;;;;;;5045348;28;20517;-66
2023/11/26 04:32:17;;;;;;;9.87;2.60;;;1.90;99.90;;;;;;5046526;28;20571;-66
2023/11/26 04:34:45;;;;;;;7.73;2.70;;;2.00;99.90;;;;;;5045197;28;20499;-66
2023/11/26 04:37:13;;;;;;;7.77;2.17;;;2.00;99.90;;;;;;5046168;28;20444;-68
2023/11/26 04:39:41;;;;;;;9.20;2.73;;;2.00;99.90;;;;;;5045994;28;20471;-68
2023/11/26 04:42:10;;;;;;;10.93;5.37;;;1.90;99.90;;;;;;5046511;28;20490;-68
2023/11/26 04:44:38;;;;;;;10.17;6.90;;;1.90;99.90;;;;;;5045808;28;20521;-68
2023/11/26 04:47:07;;;;;;;11.53;4.47;;;2.00;99.90;;;;;;5046617;28;20501;-67
2023/11/26 04:49:35;;;;;;;8.23;2.30;;;2.10;99.90;;;;;;5045827;28;20467;-67
2023/11/26 04:52:04;;;;;;;7.30;2.40;;;2.20;99.90;;;;;;5046722;28;20450;-66
2023/11/26 04:54:31;;;;;;;9.63;2.53;;;2.00;99.90;;;;;;5046546;28;20482;-68
2023/11/26 04:56:59;;;;;;;9.20;2.60;;;1.90;99.90;;;;;;5046098;28;20476;-66
2023/11/26 04:59:28;;;;;;;9.60;3.00;;;1.80;99.90;;;;;;5045541;28;20973;-67
2023/11/26 05:01:56;;;;;;;9.80;2.57;;;1.80;99.90;;;;;;5047493;28;20979;-68
2023/11/26 05:04:24;;;;;;;9.23;3.00;;;1.70;99.90;;;;;;5046340;28;20922;-65
2023/11/26 05:06:53;;;;;;;11.70;2.40;;;1.60;99.90;;;;;;5048115;28;20542;-68
2023/11/26 05:09:21;;;;;;;9.87;2.93;;;1.40;99.90;;;;;;5049714;28;20472;-66
2023/11/26 05:11:49;;;;;;;8.53;2.30;;;1.30;99.90;;;;;;5049883;28;20467;-66
2023/11/26 05:14:17;;;;;;;7.43;2.00;;;1.10;99.90;;;;;;5049318;28;20497;-66
2023/11/26 05:16:46;;;;;;;9.37;2.50;;;0.90;99.90;;;;;;5044373;28;20447;-67
2023/11/26 05:19:15;;;;;;;7.93;2.10;;;0.90;99.90;;;;;;5049297;28;20559;-68
2023/11/26 05:21:43;;;;;;;9.00;2.50;;;1.00;99.90;;;;;;5050030;28;20464;-68
2023/11/26 05:24:11;;;;;;;9.73;2.90;;;1.20;99.90;;;;;;5047908;28;20215;-66
2023/11/26 05:26:39;;;;;;;9.90;3.23;;;1.40;99.90;;;;;;5049231;28;20500;-68
2023/11/26 05:29:08;;;;;;;12.13;2.80;;;1.60;99.90;;;;;;5048551;28;20824;-68
2023/11/26 05:31:36;;;;;;;9.88;2.65;;;1.60;99.90;;;;;;5049420;28;20469;-67
2023/11/26 05:34:06;;;;;;;8.88;2.45;;;1.50;99.90;;;;;;5046865;28;20247;-68
2023/11/26 05:36:34;;;;;;;7.93;2.00;;;1.50;99.90;;;;;;5050055;28;20226;-67
2023/11/26 05:39:03;;;;;;;8.30;2.60;;;1.40;99.90;;;;;;5049942;28;20255;-67
2023/11/26 05:41:32;;;;;;;9.45;2.50;;;1.50;99.90;;;;;;5050338;28;20561;-68
2023/11/26 05:44:00;;;;;;;8.45;2.05;;;1.60;99.90;;;;;;5049377;28;20232;-68
2023/11/26 05:46:28;;;;;;;10.43;2.25;;;1.60;99.90;;;;;;5050777;28;20224;-67
2023/11/26 05:48:57;;;;;;;7.55;1.90;;;1.70;99.90;;;;;;5050062;28;20216;-66
2023/11/26 05:51:27;;;;;;;8.40;2.10;;;1.80;99.90;;;;;;5049445;28;20277;-67
2023/11/26 05:53:55;;;;;;;8.35;1.63;;;1.90;99.90;;;;;;5048236;28;20236;-69
2023/11/26 05:56:24;;;;;;;9.00;2.55;;;2.00;99.90;;;;;;5048963;28;20313;-69
2023/11/26 05:58:52;;;;;;;9.40;2.10;;;2.00;99.90;;;;;;5048486;28;20618;-66
2023/11/26 06:01:23;;;;;;;8.60;2.30;;;2.00;99.90;;;;;;5049248;28;20240;-68
2023/11/26 06:03:52;;;;;;;7.87;2.00;;;2.10;99.90;;;;;;5048155;28;20232;-67
2023/11/26 06:06:20;;;;;;;7.93;1.83;;;2.20;99.90;;;;;;5048625;28;20624;-68
2023/11/26 06:08:50;;;;;;;9.30;1.77;;;2.20;99.90;;;;;;5048170;28;20712;-68
2023/11/26 06:11:18;;;;;;;9.13;1.93;;;2.30;99.90;;;;;;5048523;28;20686;-66
2023/11/26 06:13:46;;;;;;;8.68;1.83;;;2.30;99.90;;;;;;5046934;28;20515;-66
2023/11/26 06:16:14;;;;;;;8.75;1.80;;;2.30;99.90;;;;;;5048217;28;20201;-67
2023/11/26 06:18:42;;;;;;;7.30;1.40;;;2.40;99.90;;;;;;5041372;28;20198;-68
2023/11/26 06:21:10;;;;;;;7.77;1.60;;;2.40;99.90;;;;;;5049380;28;20470;-69
2023/11/26 06:23:38;;;;;;;9.30;2.27;;;2.40;99.90;;;;;;5047468;28;20460;-68
2023/11/26 06:26:07;;;;;;;7.22;2.00;;;2.30;99.90;;;;;;5047567;28;20467;-67
2023/11/26 06:28:37;;;;;;;7.37;1.40;;;2.40;99.90;;;;;;5047784;28;20233;-67
2023/11/26 06:31:05;;;;;;;7.07;1.20;;;2.40;99.90;;;;;;5048524;28;20475;-67
2023/11/26 06:33:33;;;;;;;7.00;1.40;;;2.40;99.90;;;;;;5048033;28;20634;-67
2023/11/26 06:36:01;;;;;;;7.20;0.90;;;2.40;99.90;;;;;;5047369;28;20464;-66
2023/11/26 06:38:29;;;;;;;6.90;1.10;;;2.40;99.90;;;;;;5047072;28;20567;-66
2023/11/26 06:40:57;;;;;;;6.85;1.30;;;2.40;99.90;;;;;;5047895;28;20464;-66
2023/11/26 06:43:26;;;;;;;6.45;1.10;;;2.50;99.90;;;;;;5050680;28;20227;-68
2023/11/26 06:45:54;;;;;;;9.97;1.00;;;2.50;99.90;;;;;;5046875;28;20240;-67
2023/11/26 06:48:22;;;;;;;8.60;1.40;;;2.50;99.90;;;;;;5047465;28;20471;-68
2023/11/26 06:50:50;;;;;;;6.40;1.17;;;2.50;99.90;;;;;;5047891;28;20478;-66
2023/11/26 06:53:18;;;;;;;7.00;1.17;;;2.50;99.90;;;;;;5049231;28;20485;-67
2023/11/26 06:55:46;;;;;;;7.22;1.10;;;2.60;99.90;;;;;;5048858;28;20449;-67
2023/11/26 06:58:14;;;;;;;6.45;1.25;;;2.70;99.90;;;;;;5048638;28;20266;-67
2023/11/26 07:00:45;;;;;;;6.83;1.30;;;2.70;99.90;;;;;;5048954;28;20253;-67
2023/11/26 07:03:13;;;;;;;8.80;1.63;;;2.80;99.90;;;;;;5048006;28;20471;-67
2023/11/26 07:05:41;;;;;;;7.60;1.40;;;2.80;99.90;;;;;;5047475;28;20475;-66
2023/11/26 07:08:09;;;;;;;7.43;1.53;;;2.80;99.90;;;;;;5048091;28;20204;-67
2023/11/26 07:10:37;;;;;;;7.83;1.60;;;2.80;99.90;;;;;;5048888;28;20535;-66
2023/11/26 07:13:05;;;;;;;7.90;1.75;;;2.80;99.90;;;;;;5049088;28;20523;-67
2023/11/26 07:15:33;;;;;;;8.40;2.17;;;2.80;99.90;;;;;;5047797;28;20231;-67
2023/11/26 07:18:03;;;;;;;7.63;2.10;;;2.90;99.90;;;;;;5048453;28;20231;-66
2023/11/26 07:20:31;;;;;;;9.48;1.95;;;2.90;99.90;;;;;;5042268;28;20579;-66
2023/11/26 07:23:01;;;;;;;9.40;2.10;;;2.90;99.90;;;;;;5048843;28;20302;-66
2023/11/26 07:25:29;;;;;;;7.10;1.90;;;2.80;99.90;;;;;;5047880;28;20451;-66
2023/11/26 07:27:57;;;;;;;8.50;2.50;;;2.70;99.90;;;;;;5047427;28;20471;-68
2023/11/26 07:30:25;;;;;;;8.57;1.70;;;2.60;99.90;;;;;;5047231;28;20229;-68
2023/11/26 07:32:53;;;;;;;8.27;2.50;;;2.70;99.90;;;;;;5048153;28;20471;-66
2023/11/26 07:35:22;;;;;;;9.43;2.30;;;2.80;99.90;;;;;;5047664;28;20487;-67
2023/11/26 07:37:51;;;;;;;9.10;2.10;;;2.90;99.90;;;;;;5048049;28;20532;-69
2023/11/26 07:40:20;;;;;;;7.53;1.73;;;2.90;99.90;;;;;;5048236;28;20982;-68
2023/11/26 07:42:49;;;;;;;8.63;2.00;;;3.00;99.90;;;;;;5048095;28;20554;-67
2023/11/26 07:45:18;;;;;;;7.50;1.80;;;3.10;99.90;;;;;;5046171;28;20468;-68
2023/11/26 07:47:46;;;;;;;7.00;1.80;;;3.10;99.90;;;;;;5048069;28;20464;-66
2023/11/26 07:50:14;;;;;;;9.47;2.50;;;3.20;99.90;;;;;;5047593;28;20468;-66
2023/11/26 07:52:43;;;;;;;9.27;3.70;;;3.20;99.90;;;;;;5054529;28;20471;-68
2023/11/26 07:55:12;;;;;;;10.60;4.10;;;3.30;99.90;;;;;;5047086;28;20483;-68
2023/11/26 07:57:41;;;;;;;10.80;4.07;;;3.30;99.90;;;;;;5048289;28;20880;-66
2023/11/26 08:00:10;;;;;;;12.47;3.83;;;3.40;99.90;;;;;;5047425;28;21386;-68
2023/11/26 08:02:40;;;;;;;7.87;2.83;;;3.40;99.90;;;;;;5047626;28;20460;-67
2023/11/26 08:05:10;;;;;;;8.83;2.90;;;3.30;99.90;;;;;;5047253;28;20487;-67
2023/11/26 08:07:38;;;;;;;8.63;3.20;;;3.30;99.90;;;;;;5047457;28;20521;-66
2023/11/26 08:10:18;;;;;;;9.27;3.77;;;3.30;99.90;;;;;;5047801;28;20464;-66
2023/11/26 08:12:47;;;;;;;9.43;3.30;;;3.30;99.90;;;;;;5048348;28;20450;-69
2023/11/26 08:15:19;;;;;;;8.57;2.67;;;3.40;99.90;;;;;;5046669;28;20966;-68
2023/11/26 08:17:50;;;;;;;8.10;2.40;;;3.50;99.90;;;;;;5047282;28;20463;-69
2023/11/26 08:20:18;;;;;;;9.13;3.00;;;3.60;99.90;;;;;;5047370;28;20487;-67
2023/11/26 08:22:46;;;;;;;11.57;3.20;;;3.60;99.90;;;;;;5042634;28;20569;-68
2023/11/26 08:25:22;;;;;;;8.90;2.80;;;3.70;99.90;;;;;;5047076;28;20439;-67
2023/11/26 08:27:51;;;;;;;8.87;3.17;;;3.80;99.90;;;;;;5047785;28;20456;-69
2023/11/26 08:30:31;;;;;;;9.50;3.47;;;3.80;99.90;;;;;;5040711;28;20470;-69
2023/11/26 08:33:00;;;;;;;10.20;3.60;;;3.80;99.90;;;;;;5039982;28;20468;-67
2023/11/26 08:35:28;;;;;;;8.60;3.07;;;3.80;99.90;;;;;;5041479;28;20483;-70
2023/11/26 08:37:57;;;;;;;10.20;3.30;;;3.80;99.90;;;;;;5041807;28;20961;-69
2023/11/26 08:40:26;;;;;;;9.23;2.97;;;3.90;99.90;;;;;;5047776;28;21124;-68
2023/11/26 08:42:55;;;;;;;9.43;3.37;;;3.90;99.90;;;;;;5050544;28;20972;-69
2023/11/26 08:45:23;;;;;;;8.80;3.30;;;3.90;99.90;;;;;;5050039;28;20970;-69
2023/11/26 08:47:53;;;;;;;11.83;3.47;;;4.00;99.90;;;;;;5051778;28;20473;-70
2023/11/26 08:50:21;;;;;;;10.27;3.13;;;4.20;99.90;;;;;;5050890;28;20570;-68
2023/11/26 08:52:49;;;;;;;10.57;3.70;;;4.30;99.90;;;;;;5050553;28;20606;-69
2023/11/26 08:55:17;;;;;;;12.17;3.17;;;4.30;99.90;;;;;;5049356;28;20471;-67
2023/11/26 08:57:46;;;;;;;11.10;3.60;;;4.30;99.90;;;;;;5041419;28;20472;-68
2023/11/26 09:00:14;;;;;;;9.40;3.70;;;4.50;99.90;;;;;;5048830;28;20466;-68
2023/11/26 09:02:43;;;;;;;10.83;4.40;;;4.50;99.90;;;;;;5048248;28;20957;-68
2023/11/26 09:05:11;;;;;;;15.80;4.40;;;4.50;99.90;;;;;;5049173;28;20474;-67
2023/11/26 09:07:42;;;;;;;10.67;3.97;;;4.40;99.90;;;;;;5049603;28;20446;-70
2023/11/26 09:10:10;;;;;;;11.13;3.73;;;4.50;99.90;;;;;;5049707;28;20470;-69
2023/11/26 09:12:38;;;;;;;10.50;3.70;;;4.50;99.90;;;;;;5050067;28;20870;-69
2023/11/26 09:15:10;;;;;;;10.97;4.07;;;4.60;99.90;;;;;;5048785;28;20491;-68
2023/11/26 09:17:39;;;;;;;10.50;3.30;;;4.60;99.90;;;;;;5049791;28;20532;-66
2023/11/26 09:20:11;;;;;;;10.30;3.47;;;4.80;99.90;;;;;;5049352;28;20467;-69
2023/11/26 09:22:40;;;;;;;10.67;3.40;;;4.90;99.90;;;;;;5049804;28;20556;-69
2023/11/26 09:25:09;;;;;;;12.30;4.03;;;4.80;99.90;;;;;;5049548;28;20802;-68
2023/11/26 09:27:37;;;;;;;9.23;3.50;;;4.90;99.90;;;;;;5049895;28;20443;-68
2023/11/26 09:30:06;;;;;;;11.93;4.70;;;4.90;99.90;;;;;;5047845;28;20468;-69
2023/11/26 09:32:35;;;;;;;13.67;4.50;;;5.00;99.90;;;;;;5050347;28;20448;-65
2023/11/26 09:35:04;;;;;;;10.50;3.77;;;5.00;99.90;;;;;;5048951;28;20480;-68
2023/11/26 09:37:32;;;;;;;9.40;3.57;;;5.10;99.90;;;;;;5049512;28;20448;-67
2023/11/26 09:40:01;;;;;;;10.13;4.10;;;5.10;99.90;;;;;;5049199;28;20474;-68
2023/11/26 09:42:29;;;;;;;10.63;3.70;;;5.20;99.90;;;;;;5043737;28;20499;-67
2023/11/26 09:44:57;;;;;;;12.00;3.57;;;5.20;99.90;;;;;;5048785;28;20550;-67
2023/11/26 09:47:28;;;;;;;13.40;5.13;;;5.30;99.90;;;;;;5041258;28;20477;-67
2023/11/26 09:49:58;;;;;;;10.10;3.60;;;5.30;99.90;;;;;;5048233;28;20576;-67
2023/11/26 09:52:27;;;;;;;10.50;4.10;;;5.30;99.90;;;;;;5043519;28;21166;-67
2023/11/26 09:54:57;;;;;;;9.97;3.97;;;5.30;99.90;;;;;;5045766;28;20496;-69
2023/11/26 09:57:26;;;;;;;10.37;4.23;;;5.20;99.90;;;;;;5047337;28;20459;-68
2023/11/26 09:59:54;;;;;;;9.70;4.43;;;5.20;99.90;;;;;;5037918;28;20567;-68
2023/11/26 10:02:22;;;;;;;8.40;3.30;;;5.10;99.90;;;;;;5040631;28;20472;-70
2023/11/26 10:04:51;;;;;;;13.13;4.07;;;5.10;99.90;;;;;;5046700;28;20930;-65
2023/11/26 10:07:34;;;;;;;10.90;3.90;;;5.20;99.90;;;;;;5045319;28;20561;-66
2023/11/26 10:10:04;;;;;;;10.50;4.10;;;5.20;99.90;;;;;;5039874;28;20893;-67
2023/11/26 10:12:51;;;;;;;10.23;4.23;;;5.20;99.90;;;;;;5044170;28;20465;-66
2023/11/26 10:15:21;;;;;;;13.00;3.53;;;5.10;99.90;;;;;;5041027;28;20480;-68
2023/11/26 10:18:00;;;;;;;10.10;3.53;;;5.10;99.90;;;;;;5040970;28;20515;-67
2023/11/26 10:20:28;;;;;;;10.67;3.63;;;5.10;99.90;;;;;;5043375;28;20522;-66
2023/11/26 10:22:58;;;;;;;12.50;3.77;;;5.20;99.90;;;;;;5044607;28;20545;-65
2023/11/26 10:25:26;;;;;;;9.17;3.50;;;5.20;99.90;;;;;;5035894;28;20447;-67
2023/11/26 10:27:55;;;;;;;12.20;4.10;;;5.20;99.90;;;;;;5037868;28;20446;-67
2023/11/26 10:30:25;;;;;;;11.03;3.93;;;5.20;99.90;;;;;;5045540;28;20451;-69
2023/11/26 10:33:03;;;;;;;9.00;3.53;;;5.20;99.90;;;;;;5043035;28;21171;-67
2023/11/26 10:35:46;;;;;;;8.17;3.13;;;5.20;99.90;;;;;;5041152;28;20472;-68
2023/11/26 10:38:15;;;;;;;9.20;2.80;;;5.40;99.90;;;;;;5042049;28;20453;-68
2023/11/26 10:40:44;;;;;;;12.00;3.40;;;5.60;99.90;;;;;;5038704;28;20455;-66
2023/11/26 10:43:12;;;;;;;8.30;3.00;;;5.70;99.90;;;;;;5048144;28;20437;-67
2023/11/26 10:45:42;;;;;;;11.53;3.23;;;5.90;99.90;;;;;;5047317;28;20511;-67
2023/11/26 10:48:13;;;;;;;8.77;3.63;;;6.00;99.90;;;;;;5034969;28;20560;-67
2023/11/26 10:50:54;;;;;;;8.70;3.03;;;6.00;99.90;;;;;;5043448;28;21053;-66
2023/11/26 10:53:29;;;;;;;10.67;3.20;;;6.00;99.90;;;;;;5042342;28;20448;-69
2023/11/26 10:56:03;;;;;;;8.47;3.10;;;6.00;99.90;;;;;;5043388;28;20472;-67
2023/11/26 10:58:38;;;;;;;9.50;2.60;;;6.00;99.90;;;;;;5038345;28;20466;-69
2023/11/26 11:01:07;;;;;;;8.20;3.17;;;6.10;99.90;;;;;;5042658;28;20827;-68
2023/11/26 11:03:35;;;;;;;14.60;3.60;;;6.10;99.90;;;;;;5038162;28;21091;-69
2023/11/26 11:06:05;;;;;;;11.37;3.67;;;6.00;99.90;;;;;;5041829;28;20958;-67
2023/11/26 11:08:35;;;;;;;9.30;3.40;;;6.10;99.90;;;;;;5040955;28;20818;-70
2023/11/26 11:11:34;;;;;;;9.77;3.07;;;6.20;99.90;;;;;;5041835;28;20456;-69
2023/11/26 11:14:02;;;;;;;10.37;2.87;;;6.30;99.90;;;;;;5025417;28;20523;-67
2023/11/26 11:16:31;;;;;;;7.80;3.17;;;6.10;99.90;;;;;;5040881;28;20560;-71
2023/11/26 11:18:59;;;;;;;8.93;2.40;;;6.00;99.90;;;;;;5044394;28;20539;-69
2023/11/26 11:21:27;;;;;;;9.50;2.67;;;5.90;99.90;;;;;;5047785;28;20477;-67
2023/11/26 11:23:57;;;;;;;12.30;2.80;;;5.80;99.90;;;;;;5047411;28;20483;-68
2023/11/26 11:26:26;;;;;;;8.70;1.93;;;5.70;99.90;;;;;;5042909;28;20535;-69
2023/11/26 11:28:58;;;;;;;7.43;2.10;;;5.70;99.90;;;;;;5039203;28;20496;-66
2023/11/26 11:31:58;;;;;;;7.70;2.23;;;5.80;99.90;;;;;;5039385;28;20601;-68
2023/11/26 11:34:27;;;;;;;9.97;2.70;;;5.90;99.90;;;;;;5045303;28;20445;-66
2023/11/26 11:36:56;;;;;;;9.73;2.53;;;6.10;99.90;;;;;;5039173;28;20485;-68
2023/11/26 11:39:42;;;;;;;10.07;2.90;;;6.30;99.90;;;;;;5042604;28;20548;-69
2023/11/26 11:42:12;;;;;;;9.93;2.30;;;6.50;99.90;;;;;;5046338;28;20441;-68
2023/11/26 11:44:42;;;;;;;7.60;2.40;;;6.70;99.90;;;;;;5045565;28;20568;-68
2023/11/26 11:47:12;;;;;;;11.23;2.53;;;6.60;99.90;;;;;;5047074;28;20814;-68
2023/11/26 11:50:07;;;;;;;7.90;2.60;;;6.50;99.90;;;;;;5043297;28;20477;-66
2023/11/26 11:52:35;;;;;;;10.60;2.33;;;6.60;99.90;;;;;;5038103;28;20458;-67
2023/11/26 11:55:45;;;;;;;10.13;2.30;;;6.50;99.90;;;;;;5042417;28;20951;-68
2023/11/26 11:58:14;;;;;;;10.73;2.70;;;6.50;99.90;;;;;;5044532;28;20445;-67
2023/11/26 12:00:48;;;;;;;14.30;5.43;;;6.40;99.90;;;;;;5047006;28;20490;-66
2023/11/26 12:03:18;;;;;;;8.47;2.33;;;6.50;99.90;;;;;;5042147;28;20957;-66
2023/11/26 12:05:46;;;;;;;10.03;2.33;;;6.50;99.90;;;;;;5039624;28;20452;-67
2023/11/26 12:08:14;;;;;;;8.83;2.20;;;6.70;99.90;;;;;;5038355;28;20678;-66
2023/11/26 12:10:44;;;;;;;10.93;3.77;;;6.70;99.90;;;;;;5044050;28;20917;-66
2023/11/26 12:13:12;;;;;;;10.20;2.33;;;6.60;99.90;;;;;;5043710;28;20940;-70
2023/11/26 12:15:53;;;;;;;7.40;1.40;;;6.60;99.90;;;;;;5040131;28;20493;-67
2023/11/26 12:18:22;;;;;;;8.77;2.40;;;6.60;99.90;;;;;;5045163;28;20446;-64
2023/11/26 12:20:49;;;;;;;7.53;1.67;;;6.70;99.90;;;;;;5041574;28;20979;-66
2023/11/26 12:23:30;;;;;;;8.30;2.30;;;6.70;99.90;;;;;;5047072;28;20540;-66
2023/11/26 12:26:02;;;;;;;8.87;1.77;;;6.60;99.90;;;;;;5046559;28;20538;-68
2023/11/26 12:28:40;;;;;;;7.67;2.13;;;6.70;99.90;;;;;;5045148;28;20589;-67
2023/11/26 12:31:09;;;;;;;9.03;1.83;;;6.80;99.90;;;;;;5039757;28;20474;-67
2023/11/26 12:33:42;;;;;;;10.47;2.30;;;6.80;99.90;;;;;;5038432;28;20529;-67
2023/11/26 12:36:12;;;;;;;9.63;1.73;;;7.00;99.90;;;;;;5040169;28;20463;-69
2023/11/26 12:38:41;;;;;;;11.87;1.90;;;7.30;99.90;;;;;;5046711;28;20521;-67
2023/11/26 12:41:11;;;;;;;7.60;1.57;;;7.60;99.90;;;;;;5046078;28;20561;-67
2023/11/26 12:43:40;;;;;;;12.87;1.70;;;7.80;99.90;;;;;;5045736;28;20473;-67
2023/11/26 12:46:09;;;;;;;7.90;1.60;;;7.60;99.90;;;;;;5038573;28;20513;-66
2023/11/26 12:48:37;;;;;;;9.03;1.60;;;7.40;99.90;;;;;;5045299;28;20522;-67
2023/11/26 12:51:06;;;;;;;9.57;1.77;;;7.20;99.90;;;;;;5045247;28;20466;-66
2023/11/26 12:53:35;;;;;;;9.70;1.60;;;7.10;99.90;;;;;;5040746;28;20453;-67
2023/11/26 12:56:04;;;;;;;9.07;1.80;;;6.90;99.90;;;;;;5031532;28;20570;-68
2023/11/26 12:58:34;;;;;;;7.40;1.70;;;6.70;99.90;;;;;;5036369;28;20534;-70
2023/11/26 13:01:04;;;;;;;9.63;1.87;;;6.60;99.90;;;;;;5038447;28;20511;-66
2023/11/26 13:03:32;;;;;;;7.87;1.70;;;6.70;99.90;;;;;;5039309;28;20446;-65
2023/11/26 13:06:08;;;;;;;7.73;1.60;;;6.70;99.90;;;;;;5035672;28;20440;-68
2023/11/26 13:08:36;;;;;;;7.33;1.83;;;6.80;99.90;;;;;;5042135;28;20544;-67